sensor_id;sensor_type;location;lat;lon;timestamp;P1;durP1;ratioP1;P2;durP2;ratioP2
80494;SDS011;69819;48.798;11.770;2024-02-28T00:00:55;9.43;;;6.30;;
80494;SDS011;69819;48.798;11.770;2024-02-28T00:03:21;8.13;;;5.78;;
80494;SDS011;69819;48.798;11.770;2024-02-28T00:05:48;9.13;;;5.80;;
80494;SDS011;69819;48.798;11.770;2024-02-28T00:08:14;8.43;;;5.78;;
80494;SDS011;69819;48.798;11.770;2024-02-28T00:10:42;8.68;;;5.88;;
80494;SDS011;69819;48.798;11.770;2024-02-28T00:13:07;7.70;;;6.00;;
80494;SDS011;69819;48.798;11.770;2024-02-28T00:15:33;8.95;;;6.03;;
80494;SDS011;69819;48.798;11.770;2024-02-28T00:17:59;9.75;;;6.07;;
80494;SDS011;69819;48.798;11.770;2024-02-28T00:20:25;8.77;;;5.85;;
80494;SDS011;69819;48.798;11.770;2024-02-28T00:22:52;7.13;;;5.88;;
80494;SDS011;69819;48.798;11.770;2024-02-28T00:25:18;8.32;;;5.82;;
80494;SDS011;69819;48.798;11.770;2024-02-28T00:27:43;8.48;;;6.13;;
80494;SDS011;69819;48.798;11.770;2024-02-28T00:30:10;9.38;;;5.90;;
80494;SDS011;69819;48.798;11.770;2024-02-28T00:32:37;10.25;;;6.22;;
80494;SDS011;69819;48.798;11.770;2024-02-28T00:35:03;10.52;;;5.95;;
80494;SDS011;69819;48.798;11.770;2024-02-28T00:37:29;8.10;;;5.47;;
80494;SDS011;69819;48.798;11.770;2024-02-28T00:39:55;9.32;;;5.90;;
80494;SDS011;69819;48.798;11.770;2024-02-28T00:42:21;7.95;;;5.90;;
80494;SDS011;69819;48.798;11.770;2024-02-28T00:44:47;9.63;;;6.07;;
80494;SDS011;69819;48.798;11.770;2024-02-28T00:47:13;7.50;;;5.55;;
80494;SDS011;69819;48.798;11.770;2024-02-28T00:49:39;9.95;;;6.32;;
80494;SDS011;69819;48.798;11.770;2024-02-28T00:52:05;9.02;;;5.95;;
80494;SDS011;69819;48.798;11.770;2024-02-28T00:54:31;8.65;;;6.53;;
80494;SDS011;69819;48.798;11.770;2024-02-28T00:56:57;7.43;;;5.72;;
80494;SDS011;69819;48.798;11.770;2024-02-28T00:59:22;7.55;;;6.28;;
80494;SDS011;69819;48.798;11.770;2024-02-28T01:01:48;10.25;;;6.00;;
80494;SDS011;69819;48.798;11.770;2024-02-28T01:04:14;9.50;;;6.50;;
80494;SDS011;69819;48.798;11.770;2024-02-28T01:06:40;8.93;;;5.93;;
80494;SDS011;69819;48.798;11.770;2024-02-28T01:09:06;9.75;;;6.35;;
80494;SDS011;69819;48.798;11.770;2024-02-28T01:11:32;7.55;;;5.75;;
80494;SDS011;69819;48.798;11.770;2024-02-28T01:13:58;10.27;;;6.20;;
80494;SDS011;69819;48.798;11.770;2024-02-28T01:16:24;9.05;;;6.28;;
80494;SDS011;69819;48.798;11.770;2024-02-28T01:18:50;10.25;;;6.10;;
80494;SDS011;69819;48.798;11.770;2024-02-28T01:21:17;7.80;;;5.72;;
80494;SDS011;69819;48.798;11.770;2024-02-28T01:23:42;11.07;;;6.60;;
80494;SDS011;69819;48.798;11.770;2024-02-28T01:26:08;8.82;;;6.07;;
80494;SDS011;69819;48.798;11.770;2024-02-28T01:28:34;9.18;;;6.45;;
80494;SDS011;69819;48.798;11.770;2024-02-28T01:31:00;9.93;;;6.53;;
80494;SDS011;69819;48.798;11.770;2024-02-28T01:33:26;10.02;;;6.78;;
80494;SDS011;69819;48.798;11.770;2024-02-28T01:35:52;10.07;;;6.65;;
80494;SDS011;69819;48.798;11.770;2024-02-28T01:38:17;9.38;;;6.63;;
80494;SDS011;69819;48.798;11.770;2024-02-28T01:40:46;8.60;;;5.93;;
80494;SDS011;69819;48.798;11.770;2024-02-28T01:43:12;9.35;;;6.28;;
80494;SDS011;69819;48.798;11.770;2024-02-28T01:45:38;9.45;;;6.68;;
80494;SDS011;69819;48.798;11.770;2024-02-28T01:48:05;8.70;;;5.88;;
80494;SDS011;69819;48.798;11.770;2024-02-28T01:50:35;9.65;;;6.32;;
80494;SDS011;69819;48.798;11.770;2024-02-28T01:53:02;10.32;;;6.45;;
80494;SDS011;69819;48.798;11.770;2024-02-28T01:55:31;9.10;;;6.30;;
80494;SDS011;69819;48.798;11.770;2024-02-28T01:57:57;7.93;;;6.10;;
80494;SDS011;69819;48.798;11.770;2024-02-28T02:00:23;7.47;;;5.60;;
80494;SDS011;69819;48.798;11.770;2024-02-28T02:02:52;9.23;;;6.65;;
80494;SDS011;69819;48.798;11.770;2024-02-28T02:05:18;10.32;;;6.97;;
80494;SDS011;69819;48.798;11.770;2024-02-28T02:07:46;10.82;;;6.80;;
80494;SDS011;69819;48.798;11.770;2024-02-28T02:10:13;10.73;;;6.68;;
80494;SDS011;69819;48.798;11.770;2024-02-28T02:12:39;9.90;;;6.65;;
80494;SDS011;69819;48.798;11.770;2024-02-28T02:15:05;9.75;;;6.95;;
80494;SDS011;69819;48.798;11.770;2024-02-28T02:17:31;10.65;;;6.95;;
80494;SDS011;69819;48.798;11.770;2024-02-28T02:19:57;10.55;;;6.90;;
80494;SDS011;69819;48.798;11.770;2024-02-28T02:22:23;11.38;;;7.28;;
80494;SDS011;69819;48.798;11.770;2024-02-28T02:25:03;10.07;;;6.45;;
80494;SDS011;69819;48.798;11.770;2024-02-28T02:27:30;9.20;;;6.55;;
80494;SDS011;69819;48.798;11.770;2024-02-28T02:29:56;9.52;;;6.47;;
80494;SDS011;69819;48.798;11.770;2024-02-28T02:32:22;9.48;;;6.72;;
80494;SDS011;69819;48.798;11.770;2024-02-28T02:34:48;10.95;;;7.25;;
80494;SDS011;69819;48.798;11.770;2024-02-28T02:37:13;9.98;;;6.65;;
80494;SDS011;69819;48.798;11.770;2024-02-28T02:39:39;10.02;;;7.30;;
80494;SDS011;69819;48.798;11.770;2024-02-28T02:42:05;11.70;;;7.47;;
80494;SDS011;69819;48.798;11.770;2024-02-28T02:44:31;8.88;;;7.05;;
80494;SDS011;69819;48.798;11.770;2024-02-28T02:46:57;12.18;;;6.82;;
80494;SDS011;69819;48.798;11.770;2024-02-28T02:49:22;11.48;;;7.28;;
80494;SDS011;69819;48.798;11.770;2024-02-28T02:51:48;11.02;;;7.35;;
80494;SDS011;69819;48.798;11.770;2024-02-28T02:54:14;11.43;;;6.97;;
80494;SDS011;69819;48.798;11.770;2024-02-28T02:56:42;11.40;;;7.43;;
80494;SDS011;69819;48.798;11.770;2024-02-28T02:59:09;11.52;;;7.60;;
80494;SDS011;69819;48.798;11.770;2024-02-28T03:01:36;11.02;;;7.65;;
80494;SDS011;69819;48.798;11.770;2024-02-28T03:04:03;11.70;;;7.60;;
80494;SDS011;69819;48.798;11.770;2024-02-28T03:06:29;10.95;;;7.43;;
80494;SDS011;69819;48.798;11.770;2024-02-28T03:08:54;12.25;;;7.70;;
80494;SDS011;69819;48.798;11.770;2024-02-28T03:11:20;11.82;;;7.57;;
80494;SDS011;69819;48.798;11.770;2024-02-28T03:13:46;13.20;;;8.45;;
80494;SDS011;69819;48.798;11.770;2024-02-28T03:16:12;11.55;;;7.57;;
80494;SDS011;69819;48.798;11.770;2024-02-28T03:18:37;11.07;;;7.60;;
80494;SDS011;69819;48.798;11.770;2024-02-28T03:21:03;11.25;;;7.70;;
80494;SDS011;69819;48.798;11.770;2024-02-28T03:23:29;12.82;;;8.30;;
80494;SDS011;69819;48.798;11.770;2024-02-28T03:25:55;11.43;;;7.45;;
80494;SDS011;69819;48.798;11.770;2024-02-28T03:28:21;12.93;;;8.07;;
80494;SDS011;69819;48.798;11.770;2024-02-28T03:30:46;11.73;;;8.15;;
80494;SDS011;69819;48.798;11.770;2024-02-28T03:33:12;12.23;;;8.48;;
80494;SDS011;69819;48.798;11.770;2024-02-28T03:35:38;15.10;;;9.52;;
80494;SDS011;69819;48.798;11.770;2024-02-28T03:38:04;13.65;;;8.52;;
80494;SDS011;69819;48.798;11.770;2024-02-28T03:40:29;14.25;;;9.25;;
80494;SDS011;69819;48.798;11.770;2024-02-28T03:42:55;16.23;;;9.90;;
80494;SDS011;69819;48.798;11.770;2024-02-28T03:45:22;14.00;;;9.75;;
80494;SDS011;69819;48.798;11.770;2024-02-28T03:47:48;13.80;;;8.93;;
80494;SDS011;69819;48.798;11.770;2024-02-28T03:50:13;14.15;;;8.90;;
80494;SDS011;69819;48.798;11.770;2024-02-28T03:52:39;14.10;;;8.73;;
80494;SDS011;69819;48.798;11.770;2024-02-28T03:55:05;12.48;;;8.23;;
80494;SDS011;69819;48.798;11.770;2024-02-28T03:57:31;12.88;;;7.32;;
80494;SDS011;69819;48.798;11.770;2024-02-28T03:59:57;11.82;;;8.00;;
80494;SDS011;69819;48.798;11.770;2024-02-28T04:02:23;13.60;;;7.65;;
80494;SDS011;69819;48.798;11.770;2024-02-28T04:04:48;10.48;;;7.38;;
80494;SDS011;69819;48.798;11.770;2024-02-28T04:07:14;10.70;;;7.25;;
80494;SDS011;69819;48.798;11.770;2024-02-28T04:09:40;11.05;;;7.43;;
80494;SDS011;69819;48.798;11.770;2024-02-28T04:12:06;11.93;;;7.57;;
80494;SDS011;69819;48.798;11.770;2024-02-28T04:14:32;10.55;;;7.28;;
80494;SDS011;69819;48.798;11.770;2024-02-28T04:16:58;11.25;;;7.43;;
80494;SDS011;69819;48.798;11.770;2024-02-28T04:19:23;11.73;;;7.82;;
80494;SDS011;69819;48.798;11.770;2024-02-28T04:21:49;11.07;;;7.32;;
80494;SDS011;69819;48.798;11.770;2024-02-28T04:24:15;11.32;;;7.47;;
80494;SDS011;69819;48.798;11.770;2024-02-28T04:26:41;12.38;;;7.30;;
80494;SDS011;69819;48.798;11.770;2024-02-28T04:29:06;11.02;;;7.50;;
80494;SDS011;69819;48.798;11.770;2024-02-28T04:31:38;10.82;;;7.28;;
80494;SDS011;69819;48.798;11.770;2024-02-28T04:34:04;10.68;;;6.97;;
80494;SDS011;69819;48.798;11.770;2024-02-28T04:36:30;11.10;;;7.28;;
80494;SDS011;69819;48.798;11.770;2024-02-28T04:38:56;12.15;;;7.47;;
80494;SDS011;69819;48.798;11.770;2024-02-28T04:41:21;8.60;;;7.15;;
80494;SDS011;69819;48.798;11.770;2024-02-28T04:43:47;11.55;;;7.15;;
80494;SDS011;69819;48.798;11.770;2024-02-28T04:46:13;10.65;;;7.10;;
80494;SDS011;69819;48.798;11.770;2024-02-28T04:48:39;11.98;;;7.57;;
80494;SDS011;69819;48.798;11.770;2024-02-28T04:51:04;11.18;;;7.95;;
80494;SDS011;69819;48.798;11.770;2024-02-28T04:53:30;10.95;;;7.28;;
80494;SDS011;69819;48.798;11.770;2024-02-28T04:55:56;11.82;;;7.22;;
80494;SDS011;69819;48.798;11.770;2024-02-28T04:58:21;10.55;;;7.28;;
80494;SDS011;69819;48.798;11.770;2024-02-28T05:00:47;10.68;;;7.28;;
80494;SDS011;69819;48.798;11.770;2024-02-28T05:03:13;11.00;;;7.45;;
80494;SDS011;69819;48.798;11.770;2024-02-28T05:05:39;13.57;;;8.23;;
80494;SDS011;69819;48.798;11.770;2024-02-28T05:08:05;11.90;;;7.18;;
80494;SDS011;69819;48.798;11.770;2024-02-28T05:10:31;10.95;;;7.55;;
80494;SDS011;69819;48.798;11.770;2024-02-28T05:12:59;12.10;;;7.95;;
80494;SDS011;69819;48.798;11.770;2024-02-28T05:15:25;9.88;;;7.05;;
80494;SDS011;69819;48.798;11.770;2024-02-28T05:17:50;12.13;;;7.68;;
80494;SDS011;69819;48.798;11.770;2024-02-28T05:20:17;10.50;;;7.82;;
80494;SDS011;69819;48.798;11.770;2024-02-28T05:22:43;12.25;;;7.70;;
80494;SDS011;69819;48.798;11.770;2024-02-28T05:25:09;11.68;;;7.75;;
80494;SDS011;69819;48.798;11.770;2024-02-28T05:27:34;11.77;;;7.70;;
80494;SDS011;69819;48.798;11.770;2024-02-28T05:30:01;11.48;;;7.40;;
80494;SDS011;69819;48.798;11.770;2024-02-28T05:32:27;10.65;;;7.65;;
80494;SDS011;69819;48.798;11.770;2024-02-28T05:34:53;10.13;;;7.13;;
80494;SDS011;69819;48.798;11.770;2024-02-28T05:37:18;11.95;;;7.82;;
80494;SDS011;69819;48.798;11.770;2024-02-28T05:39:44;10.80;;;7.65;;
80494;SDS011;69819;48.798;11.770;2024-02-28T05:42:10;11.68;;;7.82;;
80494;SDS011;69819;48.798;11.770;2024-02-28T05:44:36;10.65;;;7.90;;
80494;SDS011;69819;48.798;11.770;2024-02-28T05:47:01;10.88;;;7.95;;
80494;SDS011;69819;48.798;11.770;2024-02-28T05:49:27;12.68;;;8.57;;
80494;SDS011;69819;48.798;11.770;2024-02-28T05:51:53;11.05;;;7.93;;
80494;SDS011;69819;48.798;11.770;2024-02-28T05:54:18;11.90;;;7.60;;
80494;SDS011;69819;48.798;11.770;2024-02-28T05:56:44;10.48;;;7.75;;
80494;SDS011;69819;48.798;11.770;2024-02-28T05:59:10;11.00;;;7.13;;
80494;SDS011;69819;48.798;11.770;2024-02-28T06:01:36;11.52;;;7.80;;
80494;SDS011;69819;48.798;11.770;2024-02-28T06:04:03;13.23;;;8.02;;
80494;SDS011;69819;48.798;11.770;2024-02-28T06:06:29;11.20;;;7.63;;
80494;SDS011;69819;48.798;11.770;2024-02-28T06:08:54;12.68;;;7.90;;
80494;SDS011;69819;48.798;11.770;2024-02-28T06:11:21;10.48;;;6.90;;
80494;SDS011;69819;48.798;11.770;2024-02-28T06:13:47;12.32;;;7.95;;
80494;SDS011;69819;48.798;11.770;2024-02-28T06:16:14;11.43;;;7.70;;
80494;SDS011;69819;48.798;11.770;2024-02-28T06:18:41;13.80;;;8.07;;
80494;SDS011;69819;48.798;11.770;2024-02-28T06:21:07;10.75;;;7.88;;
80494;SDS011;69819;48.798;11.770;2024-02-28T06:23:32;11.50;;;7.55;;
80494;SDS011;69819;48.798;11.770;2024-02-28T06:25:58;10.77;;;7.45;;
80494;SDS011;69819;48.798;11.770;2024-02-28T06:28:24;12.32;;;7.90;;
80494;SDS011;69819;48.798;11.770;2024-02-28T06:30:50;11.80;;;8.27;;
80494;SDS011;69819;48.798;11.770;2024-02-28T06:33:15;11.85;;;8.00;;
80494;SDS011;69819;48.798;11.770;2024-02-28T06:35:41;13.95;;;8.25;;
80494;SDS011;69819;48.798;11.770;2024-02-28T06:38:07;10.38;;;7.53;;
80494;SDS011;69819;48.798;11.770;2024-02-28T06:40:33;10.85;;;7.50;;
80494;SDS011;69819;48.798;11.770;2024-02-28T06:43:00;10.10;;;7.15;;
80494;SDS011;69819;48.798;11.770;2024-02-28T06:45:26;10.88;;;7.55;;
80494;SDS011;69819;48.798;11.770;2024-02-28T06:47:52;11.93;;;8.00;;
80494;SDS011;69819;48.798;11.770;2024-02-28T06:50:18;11.32;;;7.90;;
80494;SDS011;69819;48.798;11.770;2024-02-28T06:52:44;10.30;;;7.35;;
80494;SDS011;69819;48.798;11.770;2024-02-28T06:55:09;12.13;;;7.70;;
80494;SDS011;69819;48.798;11.770;2024-02-28T06:57:36;11.63;;;7.28;;
80494;SDS011;69819;48.798;11.770;2024-02-28T07:00:07;12.02;;;7.72;;
80494;SDS011;69819;48.798;11.770;2024-02-28T07:02:39;12.32;;;7.63;;
80494;SDS011;69819;48.798;11.770;2024-02-28T07:05:05;11.40;;;7.45;;
80494;SDS011;69819;48.798;11.770;2024-02-28T07:07:32;12.40;;;7.15;;
80494;SDS011;69819;48.798;11.770;2024-02-28T07:09:58;11.25;;;7.90;;
80494;SDS011;69819;48.798;11.770;2024-02-28T07:12:24;11.75;;;7.63;;
80494;SDS011;69819;48.798;11.770;2024-02-28T07:14:51;11.75;;;8.05;;
80494;SDS011;69819;48.798;11.770;2024-02-28T07:17:17;12.90;;;8.27;;
80494;SDS011;69819;48.798;11.770;2024-02-28T07:19:42;13.60;;;8.88;;
80494;SDS011;69819;48.798;11.770;2024-02-28T07:22:08;12.77;;;8.15;;
80494;SDS011;69819;48.798;11.770;2024-02-28T07:24:34;11.68;;;8.18;;
80494;SDS011;69819;48.798;11.770;2024-02-28T07:27:00;11.35;;;7.68;;
80494;SDS011;69819;48.798;11.770;2024-02-28T07:29:25;11.57;;;8.05;;
80494;SDS011;69819;48.798;11.770;2024-02-28T07:31:51;10.90;;;7.65;;
80494;SDS011;69819;48.798;11.770;2024-02-28T07:34:17;11.65;;;8.15;;
80494;SDS011;69819;48.798;11.770;2024-02-28T07:36:43;11.82;;;8.10;;
80494;SDS011;69819;48.798;11.770;2024-02-28T07:39:09;11.82;;;8.15;;
80494;SDS011;69819;48.798;11.770;2024-02-28T07:41:40;12.10;;;8.75;;
80494;SDS011;69819;48.798;11.770;2024-02-28T07:44:06;13.32;;;8.65;;
80494;SDS011;69819;48.798;11.770;2024-02-28T07:46:33;11.68;;;7.88;;
80494;SDS011;69819;48.798;11.770;2024-02-28T07:49:00;13.80;;;8.80;;
80494;SDS011;69819;48.798;11.770;2024-02-28T07:51:26;12.63;;;7.97;;
80494;SDS011;69819;48.798;11.770;2024-02-28T07:53:53;12.68;;;8.13;;
80494;SDS011;69819;48.798;11.770;2024-02-28T07:56:20;12.90;;;8.10;;
80494;SDS011;69819;48.798;11.770;2024-02-28T07:58:46;13.88;;;8.93;;
80494;SDS011;69819;48.798;11.770;2024-02-28T08:01:12;13.05;;;8.82;;
80494;SDS011;69819;48.798;11.770;2024-02-28T08:03:39;13.63;;;8.80;;
80494;SDS011;69819;48.798;11.770;2024-02-28T08:06:05;14.88;;;9.07;;
80494;SDS011;69819;48.798;11.770;2024-02-28T08:08:32;12.85;;;8.65;;
80494;SDS011;69819;48.798;11.770;2024-02-28T08:10:58;15.82;;;9.80;;
80494;SDS011;69819;48.798;11.770;2024-02-28T08:13:24;15.43;;;9.63;;
80494;SDS011;69819;48.798;11.770;2024-02-28T08:15:53;12.60;;;8.57;;
80494;SDS011;69819;48.798;11.770;2024-02-28T08:18:19;12.73;;;8.77;;
80494;SDS011;69819;48.798;11.770;2024-02-28T08:20:45;13.52;;;9.10;;
80494;SDS011;69819;48.798;11.770;2024-02-28T08:23:11;14.75;;;9.20;;
80494;SDS011;69819;48.798;11.770;2024-02-28T08:25:36;16.85;;;9.57;;
80494;SDS011;69819;48.798;11.770;2024-02-28T08:28:03;14.35;;;8.90;;
80494;SDS011;69819;48.798;11.770;2024-02-28T08:30:29;13.25;;;9.27;;
80494;SDS011;69819;48.798;11.770;2024-02-28T08:32:56;15.15;;;9.73;;
80494;SDS011;69819;48.798;11.770;2024-02-28T08:35:23;13.88;;;8.63;;
80494;SDS011;69819;48.798;11.770;2024-02-28T08:37:49;14.57;;;8.93;;
80494;SDS011;69819;48.798;11.770;2024-02-28T08:40:15;13.00;;;9.15;;
80494;SDS011;69819;48.798;11.770;2024-02-28T08:42:40;13.50;;;9.15;;
80494;SDS011;69819;48.798;11.770;2024-02-28T08:45:07;14.30;;;9.13;;
80494;SDS011;69819;48.798;11.770;2024-02-28T08:47:33;13.75;;;8.80;;
80494;SDS011;69819;48.798;11.770;2024-02-28T08:49:59;13.23;;;9.00;;
80494;SDS011;69819;48.798;11.770;2024-02-28T08:52:25;15.23;;;9.35;;
80494;SDS011;69819;48.798;11.770;2024-02-28T08:54:50;14.25;;;9.63;;
80494;SDS011;69819;48.798;11.770;2024-02-28T08:57:18;15.38;;;9.82;;
80494;SDS011;69819;48.798;11.770;2024-02-28T08:59:47;17.27;;;9.75;;
80494;SDS011;69819;48.798;11.770;2024-02-28T09:02:13;14.27;;;8.55;;
80494;SDS011;69819;48.798;11.770;2024-02-28T09:04:38;17.27;;;9.18;;
80494;SDS011;69819;48.798;11.770;2024-02-28T09:07:04;14.27;;;9.48;;
80494;SDS011;69819;48.798;11.770;2024-02-28T09:09:30;13.63;;;8.63;;
80494;SDS011;69819;48.798;11.770;2024-02-28T09:11:59;13.38;;;8.70;;
80494;SDS011;69819;48.798;11.770;2024-02-28T09:14:28;16.02;;;9.35;;
80494;SDS011;69819;48.798;11.770;2024-02-28T09:16:53;13.68;;;8.55;;
80494;SDS011;69819;48.798;11.770;2024-02-28T09:19:25;12.10;;;8.82;;
80494;SDS011;69819;48.798;11.770;2024-02-28T09:21:51;12.23;;;8.20;;
80494;SDS011;69819;48.798;11.770;2024-02-28T09:24:17;13.10;;;8.75;;
80494;SDS011;69819;48.798;11.770;2024-02-28T09:26:42;13.65;;;8.60;;
80494;SDS011;69819;48.798;11.770;2024-02-28T09:29:08;12.88;;;8.43;;
80494;SDS011;69819;48.798;11.770;2024-02-28T09:31:34;13.88;;;8.43;;
80494;SDS011;69819;48.798;11.770;2024-02-28T09:33:59;12.98;;;8.07;;
80494;SDS011;69819;48.798;11.770;2024-02-28T09:36:29;13.80;;;9.02;;
80494;SDS011;69819;48.798;11.770;2024-02-28T09:38:55;13.80;;;8.13;;
80494;SDS011;69819;48.798;11.770;2024-02-28T09:41:21;14.93;;;9.25;;
80494;SDS011;69819;48.798;11.770;2024-02-28T09:43:47;11.63;;;8.20;;
80494;SDS011;69819;48.798;11.770;2024-02-28T09:46:14;13.35;;;9.15;;
80494;SDS011;69819;48.798;11.770;2024-02-28T09:48:40;14.07;;;8.55;;
80494;SDS011;69819;48.798;11.770;2024-02-28T09:51:06;14.32;;;8.98;;
80494;SDS011;69819;48.798;11.770;2024-02-28T09:53:37;12.93;;;7.90;;
80494;SDS011;69819;48.798;11.770;2024-02-28T09:56:04;12.60;;;8.32;;
80494;SDS011;69819;48.798;11.770;2024-02-28T09:58:31;12.80;;;8.75;;
80494;SDS011;69819;48.798;11.770;2024-02-28T10:01:00;10.98;;;7.85;;
80494;SDS011;69819;48.798;11.770;2024-02-28T10:03:28;11.90;;;8.15;;
80494;SDS011;69819;48.798;11.770;2024-02-28T10:05:57;14.13;;;8.52;;
80494;SDS011;69819;48.798;11.770;2024-02-28T10:08:23;13.90;;;9.15;;
80494;SDS011;69819;48.798;11.770;2024-02-28T10:10:49;14.45;;;9.00;;
80494;SDS011;69819;48.798;11.770;2024-02-28T10:13:19;13.85;;;8.95;;
80494;SDS011;69819;48.798;11.770;2024-02-28T10:15:45;12.90;;;8.43;;
80494;SDS011;69819;48.798;11.770;2024-02-28T10:18:14;13.07;;;8.73;;
80494;SDS011;69819;48.798;11.770;2024-02-28T10:20:40;12.70;;;8.10;;
80494;SDS011;69819;48.798;11.770;2024-02-28T10:23:06;12.52;;;8.35;;
80494;SDS011;69819;48.798;11.770;2024-02-28T10:25:47;12.60;;;8.30;;
80494;SDS011;69819;48.798;11.770;2024-02-28T10:28:13;11.07;;;7.47;;
80494;SDS011;69819;48.798;11.770;2024-02-28T10:30:40;11.77;;;8.77;;
80494;SDS011;69819;48.798;11.770;2024-02-28T10:33:14;12.07;;;8.20;;
80494;SDS011;69819;48.798;11.770;2024-02-28T10:35:41;13.73;;;8.45;;
80494;SDS011;69819;48.798;11.770;2024-02-28T10:38:12;12.38;;;8.02;;
80494;SDS011;69819;48.798;11.770;2024-02-28T10:40:42;13.15;;;8.82;;
80494;SDS011;69819;48.798;11.770;2024-02-28T10:43:08;13.93;;;8.50;;
80494;SDS011;69819;48.798;11.770;2024-02-28T10:45:36;11.20;;;7.60;;
80494;SDS011;69819;48.798;11.770;2024-02-28T10:48:05;9.07;;;7.28;;
80494;SDS011;69819;48.798;11.770;2024-02-28T10:50:33;12.88;;;8.05;;
80494;SDS011;69819;48.798;11.770;2024-02-28T10:53:00;11.50;;;8.02;;
80494;SDS011;69819;48.798;11.770;2024-02-28T10:55:34;10.68;;;7.57;;
80494;SDS011;69819;48.798;11.770;2024-02-28T10:58:11;12.25;;;8.30;;
80494;SDS011;69819;48.798;11.770;2024-02-28T11:00:40;11.80;;;7.53;;
80494;SDS011;69819;48.798;11.770;2024-02-28T11:03:12;12.20;;;7.57;;
80494;SDS011;69819;48.798;11.770;2024-02-28T11:05:42;11.70;;;8.07;;
80494;SDS011;69819;48.798;11.770;2024-02-28T11:08:24;12.27;;;8.40;;
80494;SDS011;69819;48.798;11.770;2024-02-28T11:11:02;12.90;;;8.13;;
80494;SDS011;69819;48.798;11.770;2024-02-28T11:13:33;12.65;;;7.72;;
80494;SDS011;69819;48.798;11.770;2024-02-28T11:16:08;13.07;;;7.97;;
80494;SDS011;69819;48.798;11.770;2024-02-28T11:18:35;11.13;;;7.32;;
80494;SDS011;69819;48.798;11.770;2024-02-28T11:21:01;10.70;;;7.22;;
80494;SDS011;69819;48.798;11.770;2024-02-28T11:23:37;11.18;;;7.38;;
80494;SDS011;69819;48.798;11.770;2024-02-28T11:26:03;11.35;;;6.82;;
80494;SDS011;69819;48.798;11.770;2024-02-28T11:28:29;13.13;;;8.07;;
80494;SDS011;69819;48.798;11.770;2024-02-28T11:30:55;11.10;;;6.88;;
80494;SDS011;69819;48.798;11.770;2024-02-28T11:33:20;12.00;;;7.68;;
80494;SDS011;69819;48.798;11.770;2024-02-28T11:35:58;10.68;;;7.82;;
80494;SDS011;69819;48.798;11.770;2024-02-28T11:38:25;11.02;;;7.63;;
80494;SDS011;69819;48.798;11.770;2024-02-28T11:40:51;12.48;;;8.02;;
80494;SDS011;69819;48.798;11.770;2024-02-28T11:43:18;13.85;;;7.78;;
80494;SDS011;69819;48.798;11.770;2024-02-28T11:45:44;11.60;;;7.18;;
80494;SDS011;69819;48.798;11.770;2024-02-28T11:48:12;13.90;;;8.20;;
80494;SDS011;69819;48.798;11.770;2024-02-28T11:50:41;11.70;;;8.02;;
80494;SDS011;69819;48.798;11.770;2024-02-28T11:53:07;12.07;;;8.82;;
80494;SDS011;69819;48.798;11.770;2024-02-28T11:55:34;13.35;;;8.43;;
80494;SDS011;69819;48.798;11.770;2024-02-28T11:58:07;15.18;;;9.43;;
80494;SDS011;69819;48.798;11.770;2024-02-28T12:00:48;18.05;;;10.35;;
80494;SDS011;69819;48.798;11.770;2024-02-28T12:03:24;14.98;;;9.23;;
80494;SDS011;69819;48.798;11.770;2024-02-28T12:05:51;15.80;;;9.55;;
80494;SDS011;69819;48.798;11.770;2024-02-28T12:08:18;17.48;;;10.07;;
80494;SDS011;69819;48.798;11.770;2024-02-28T12:10:47;15.68;;;9.35;;
80494;SDS011;69819;48.798;11.770;2024-02-28T12:13:17;15.25;;;9.75;;
80494;SDS011;69819;48.798;11.770;2024-02-28T12:15:43;17.55;;;9.52;;
80494;SDS011;69819;48.798;11.770;2024-02-28T12:18:11;15.20;;;10.02;;
80494;SDS011;69819;48.798;11.770;2024-02-28T12:20:36;18.17;;;10.52;;
80494;SDS011;69819;48.798;11.770;2024-02-28T12:23:05;17.00;;;10.32;;
80494;SDS011;69819;48.798;11.770;2024-02-28T12:25:33;16.73;;;9.68;;
80494;SDS011;69819;48.798;11.770;2024-02-28T12:28:00;15.15;;;8.93;;
80494;SDS011;69819;48.798;11.770;2024-02-28T12:30:26;15.68;;;9.20;;
80494;SDS011;69819;48.798;11.770;2024-02-28T12:32:52;16.10;;;9.68;;
80494;SDS011;69819;48.798;11.770;2024-02-28T12:35:17;15.15;;;10.02;;
80494;SDS011;69819;48.798;11.770;2024-02-28T12:37:43;16.80;;;9.32;;
80494;SDS011;69819;48.798;11.770;2024-02-28T12:40:09;16.55;;;9.55;;
80494;SDS011;69819;48.798;11.770;2024-02-28T12:42:35;18.33;;;11.07;;
80494;SDS011;69819;48.798;11.770;2024-02-28T12:45:02;12.68;;;8.80;;
80494;SDS011;69819;48.798;11.770;2024-02-28T12:47:29;14.90;;;9.13;;
80494;SDS011;69819;48.798;11.770;2024-02-28T12:49:56;15.13;;;9.27;;
80494;SDS011;69819;48.798;11.770;2024-02-28T12:52:22;13.88;;;8.55;;
80494;SDS011;69819;48.798;11.770;2024-02-28T12:54:49;14.57;;;8.73;;
80494;SDS011;69819;48.798;11.770;2024-02-28T12:57:15;12.25;;;8.10;;
80494;SDS011;69819;48.798;11.770;2024-02-28T12:59:41;12.90;;;8.48;;
80494;SDS011;69819;48.798;11.770;2024-02-28T13:02:08;13.55;;;8.38;;
80494;SDS011;69819;48.798;11.770;2024-02-28T13:04:35;14.43;;;8.02;;
80494;SDS011;69819;48.798;11.770;2024-02-28T13:07:01;12.00;;;7.43;;
80494;SDS011;69819;48.798;11.770;2024-02-28T13:09:27;11.63;;;7.25;;
80494;SDS011;69819;48.798;11.770;2024-02-28T13:11:53;14.57;;;8.45;;
80494;SDS011;69819;48.798;11.770;2024-02-28T13:14:19;12.85;;;7.95;;
80494;SDS011;69819;48.798;11.770;2024-02-28T13:16:44;14.30;;;8.02;;
80494;SDS011;69819;48.798;11.770;2024-02-28T13:19:10;11.63;;;7.30;;
80494;SDS011;69819;48.798;11.770;2024-02-28T13:21:36;14.18;;;7.03;;
80494;SDS011;69819;48.798;11.770;2024-02-28T13:24:02;10.13;;;6.90;;
80494;SDS011;69819;48.798;11.770;2024-02-28T13:26:30;10.88;;;6.93;;
80494;SDS011;69819;48.798;11.770;2024-02-28T13:28:56;12.00;;;7.43;;
80494;SDS011;69819;48.798;11.770;2024-02-28T13:31:22;10.30;;;6.90;;
80494;SDS011;69819;48.798;11.770;2024-02-28T13:33:48;11.60;;;6.78;;
80494;SDS011;69819;48.798;11.770;2024-02-28T13:36:13;10.65;;;6.90;;
80494;SDS011;69819;48.798;11.770;2024-02-28T13:38:40;10.30;;;6.93;;
80494;SDS011;69819;48.798;11.770;2024-02-28T13:41:05;10.15;;;6.72;;
80494;SDS011;69819;48.798;11.770;2024-02-28T13:43:31;13.07;;;7.80;;
80494;SDS011;69819;48.798;11.770;2024-02-28T13:45:57;12.63;;;8.52;;
80494;SDS011;69819;48.798;11.770;2024-02-28T13:48:25;12.77;;;7.28;;
80494;SDS011;69819;48.798;11.770;2024-02-28T13:50:53;11.60;;;7.72;;
80494;SDS011;69819;48.798;11.770;2024-02-28T13:53:19;12.15;;;7.25;;
80494;SDS011;69819;48.798;11.770;2024-02-28T13:55:45;13.80;;;8.25;;
80494;SDS011;69819;48.798;11.770;2024-02-28T13:58:12;12.02;;;7.05;;
80494;SDS011;69819;48.798;11.770;2024-02-28T14:00:39;12.95;;;7.20;;
80494;SDS011;69819;48.798;11.770;2024-02-28T14:03:05;11.20;;;6.97;;
80494;SDS011;69819;48.798;11.770;2024-02-28T14:05:31;12.70;;;7.60;;
80494;SDS011;69819;48.798;11.770;2024-02-28T14:07:57;12.77;;;7.88;;
80494;SDS011;69819;48.798;11.770;2024-02-28T14:10:24;13.70;;;8.23;;
80494;SDS011;69819;48.798;11.770;2024-02-28T14:12:50;13.32;;;8.27;;
80494;SDS011;69819;48.798;11.770;2024-02-28T14:15:18;12.68;;;8.07;;
80494;SDS011;69819;48.798;11.770;2024-02-28T14:17:44;15.20;;;8.20;;
80494;SDS011;69819;48.798;11.770;2024-02-28T14:20:11;13.18;;;7.80;;